Time;durP1;ratioP1;P1;durP2;ratioP2;P2;SDS_P1;SDS_P2;PMS_P1;PMS_P2;Temp;Humidity;BMP_temperature;BMP_pressure;BME280_temperature;BME280_humidity;BME280_pressure;Samples;Min_cycle;Max_cycle;Signal;HPM_P1;HPM_P2
2021/10/14 00:00:04;;;;;;;14.55;5.78;;;;;;;13.39;84.47;100358.67;1707006;84;21145;-66
2021/10/14 00:02:38;;;;;;;15.20;5.95;;;;;;;13.42;84.51;100360.48;1706368;84;21482;-66
2021/10/14 00:05:12;;;;;;;17.80;5.78;;;;;;;13.47;84.49;100361.34;1706771;84;21715;-66
2021/10/14 00:07:45;;;;;;;;;;;;;;;13.53;84.42;100363.39;1708900;84;21303;-67
2021/10/14 00:10:18;;;;;;;20.72;6.90;;;;;;;13.57;84.38;100359.95;1706632;84;20172;-66
2021/10/14 00:12:51;;;;;;;;;;;;;;;13.61;84.33;100360.83;1707713;84;21200;-66
2021/10/14 00:15:24;;;;;;;16.02;5.67;;;;;;;13.66;84.23;100357.73;1706718;84;20697;-67
2021/10/14 00:17:59;;;;;;;16.10;7.67;;;;;;;13.67;84.17;100352.31;1706470;84;21215;-66
2021/10/14 00:20:32;;;;;;;10.95;5.85;;;;;;;13.72;84.07;100350.53;1709559;84;21304;-66
2021/10/14 00:23:06;;;;;;;13.20;5.85;;;;;;;13.73;83.96;100351.69;1706359;84;21292;-66
2021/10/14 00:25:39;;;;;;;14.40;5.40;;;;;;;13.74;84.00;100346.77;1705222;84;21212;-66
2021/10/14 00:28:12;;;;;;;16.50;6.72;;;;;;;13.75;83.96;100345.80;1713255;82;21298;-66
2021/10/14 00:30:45;;;;;;;8.35;5.10;;;;;;;13.77;83.89;100347.79;1714925;84;21291;-66
2021/10/14 00:33:18;;;;;;;13.10;6.47;;;;;;;13.78;83.81;100344.67;1714423;84;21282;-66
2021/10/14 00:35:51;;;;;;;15.95;6.37;;;;;;;13.78;83.75;100342.84;1714891;84;21974;-66
2021/10/14 00:38:24;;;;;;;11.18;5.53;;;;;;;13.80;83.76;100342.23;1714056;84;21290;-66
2021/10/14 00:40:58;;;;;;;17.62;6.05;;;;;;;13.79;83.78;100335.30;1714495;84;21731;-66
2021/10/14 00:43:31;;;;;;;10.60;5.75;;;;;;;13.80;83.89;100340.91;1714047;84;21830;-66
2021/10/14 00:46:04;;;;;;;12.47;5.90;;;;;;;13.81;84.16;100346.49;1716541;82;21230;-67
2021/10/14 00:48:37;;;;;;;11.23;5.50;;;;;;;13.81;83.97;100334.65;1724517;83;21729;-67
2021/10/14 00:51:11;;;;;;;12.18;5.55;;;;;;;13.81;84.45;100341.23;1722481;83;21207;-66
2021/10/14 00:53:44;;;;;;;15.78;5.47;;;;;;;13.81;84.58;100346.49;1703205;84;21297;-66
2021/10/14 00:56:17;;;;;;;12.10;5.93;;;;;;;13.79;84.63;100340.56;1715197;83;21195;-67
2021/10/14 00:58:50;;;;;;;14.67;6.07;;;;;;;13.77;84.67;100337.27;1713177;84;22249;-66
2021/10/14 01:01:23;;;;;;;14.28;5.65;;;;;;;13.74;84.79;100333.61;1713277;83;21259;-67
2021/10/14 01:03:56;;;;;;;13.53;6.12;;;;;;;13.72;84.90;100330.31;1712926;84;21329;-66
2021/10/14 01:06:30;;;;;;;12.13;5.53;;;;;;;13.69;85.06;100331.10;1713160;84;21255;-66
2021/10/14 01:09:03;;;;;;;11.95;5.40;;;;;;;13.65;85.28;100330.59;1713141;84;21845;-66
2021/10/14 01:11:36;;;;;;;11.05;6.00;;;;;;;13.65;85.44;100323.19;1713250;83;21180;-66
2021/10/14 01:14:09;;;;;;;9.63;4.25;;;;;;;13.63;85.44;100324.67;1713011;84;21303;-66
2021/10/14 01:16:44;;;;;;;14.75;5.80;;;;;;;13.63;85.44;100324.67;1712836;83;21326;-67
2021/10/14 01:19:17;;;;;;;13.22;5.97;;;;;;;13.60;85.90;100323.66;1708659;82;22182;-67
2021/10/14 01:21:51;;;;;;;12.65;6.25;;;;;;;13.61;86.02;100322.69;1712101;84;21259;-66
2021/10/14 01:24:24;;;;;;;;;;;;;;;13.59;86.13;100319.36;1716686;84;21233;-65
2021/10/14 01:26:56;;;;;;;15.20;6.30;;;;;;;13.59;86.23;100325.94;1713970;84;20235;-66
2021/10/14 01:29:30;;;;;;;19.33;6.00;;;;;;;13.58;86.38;100329.56;1712952;82;21338;-66
2021/10/14 01:32:04;;;;;;;13.67;5.77;;;;;;;13.59;86.39;100328.56;1714676;84;21136;-66
2021/10/14 01:34:37;;;;;;;16.12;6.95;;;;;;;13.60;86.46;100322.82;1714066;84;22048;-66
2021/10/14 01:37:10;;;;;;;13.70;5.45;;;;;;;13.61;86.50;100322.69;1714742;84;21247;-66
2021/10/14 01:39:43;;;;;;;11.65;5.37;;;;;;;13.60;86.55;100321.02;1714233;84;21884;-64
2021/10/14 01:42:16;;;;;;;11.65;5.70;;;;;;;13.59;86.63;100323.30;1714658;84;21120;-65
2021/10/14 01:44:50;;;;;;;16.82;6.58;;;;;;;13.59;86.77;100320.67;1712607;84;21318;-66
2021/10/14 01:47:23;;;;;;;13.85;6.30;;;;;;;13.58;86.83;100313.78;1714241;84;21152;-66
2021/10/14 01:49:56;;;;;;;15.05;6.78;;;;;;;13.58;86.94;100310.32;1713464;84;21283;-66
2021/10/14 01:52:29;;;;;;;16.67;7.47;;;;;;;13.57;87.13;100311.28;1714522;84;21195;-66
2021/10/14 01:55:02;;;;;;;16.15;6.67;;;;;;;13.54;87.23;100317.70;1714518;84;21192;-65
2021/10/14 01:57:36;;;;;;;14.03;7.05;;;;;;;13.53;87.51;100319.16;1714261;84;21298;-66
2021/10/14 02:00:11;;;;;;;18.67;8.63;;;;;;;13.50;87.71;100324.23;1713943;84;21256;-65
2021/10/14 02:02:45;;;;;;;18.80;9.23;;;;;;;13.50;87.90;100318.97;1714299;84;21283;-65
2021/10/14 02:05:19;;;;;;;25.20;10.53;;;;;;;13.48;88.10;100327.03;1714045;84;21251;-66
2021/10/14 02:07:52;;;;;;;15.10;8.13;;;;;;;13.45;88.31;100326.01;1714604;84;21259;-66
2021/10/14 02:10:25;;;;;;;21.35;7.90;;;;;;;13.44;88.54;100322.23;1714138;84;21176;-66
2021/10/14 02:12:58;;;;;;;14.18;7.50;;;;;;;13.43;88.75;100312.67;1714569;84;21144;-66
2021/10/14 02:15:32;;;;;;;13.58;6.95;;;;;;;13.42;88.98;100308.41;1713824;84;21168;-66
2021/10/14 02:18:05;;;;;;;12.00;7.50;;;;;;;13.41;89.20;100312.00;1714369;84;21148;-66
2021/10/14 02:20:38;;;;;;;15.95;7.97;;;;;;;13.40;89.45;100312.48;1713804;84;21555;-67
2021/10/14 02:23:11;;;;;;;17.43;8.17;;;;;;;13.41;89.65;100311.52;1714828;84;21774;-66
2021/10/14 02:25:45;;;;;;;24.50;11.05;;;;;;;13.41;89.82;100312.00;1714493;84;21293;-67
2021/10/14 02:28:18;;;;;;;14.97;8.60;;;;;;;13.41;90.00;100304.11;1714712;84;21279;-66
2021/10/14 02:30:51;;;;;;;16.02;8.68;;;;;;;13.43;90.17;100310.05;1712924;82;21183;-65
2021/10/14 02:33:24;;;;;;;14.17;7.57;;;;;;;13.44;90.31;100305.13;1714546;84;21254;-65
2021/10/14 02:35:57;;;;;;;18.15;8.50;;;;;;;13.45;90.39;100302.82;1714367;84;21179;-66
2021/10/14 02:38:30;;;;;;;12.47;6.85;;;;;;;13.46;90.57;100305.80;1713716;84;21192;-65
2021/10/14 02:41:03;;;;;;;14.27;7.47;;;;;;;13.47;90.65;100303.48;1714206;84;21718;-66
2021/10/14 02:43:36;;;;;;;16.25;7.87;;;;;;;13.47;90.82;100304.32;1714637;84;21949;-65
2021/10/14 02:46:09;;;;;;;16.43;8.10;;;;;;;13.49;90.89;100306.81;1714523;84;21298;-65
2021/10/14 02:48:42;;;;;;;17.80;7.73;;;;;;;13.50;90.96;100302.70;1714200;84;21342;-66
2021/10/14 02:51:16;;;;;;;17.95;8.10;;;;;;;13.53;91.06;100306.84;1714159;84;21306;-66
2021/10/14 02:53:49;;;;;;;16.97;8.00;;;;;;;13.53;91.14;100300.27;1714835;84;21151;-67
2021/10/14 02:56:22;;;;;;;16.00;7.95;;;;;;;13.54;91.24;100296.66;1714111;84;21195;-67
2021/10/14 02:58:55;;;;;;;15.88;8.50;;;;;;;13.55;91.28;100290.41;1714437;84;21247;-66
2021/10/14 03:01:28;;;;;;;22.20;7.80;;;;;;;13.57;91.37;100289.76;1714325;84;21286;-67
2021/10/14 03:04:01;;;;;;;14.07;7.60;;;;;;;13.60;91.43;100290.77;1714574;84;21295;-67
2021/10/14 03:06:34;;;;;;;10.93;6.70;;;;;;;13.62;91.44;100286.66;1714122;84;21211;-66
2021/10/14 03:09:08;;;;;;;11.93;7.00;;;;;;;13.62;91.45;100289.29;1714755;84;21247;-66
2021/10/14 03:11:41;;;;;;;14.60;6.67;;;;;;;13.62;91.45;100290.12;1713859;84;21318;-67
2021/10/14 03:14:14;;;;;;;11.25;6.50;;;;;;;13.62;91.45;100288.81;1714660;84;21647;-67
2021/10/14 03:16:47;;;;;;;13.55;6.50;;;;;;;13.64;91.46;100286.84;1714451;84;21274;-67
2021/10/14 03:19:20;;;;;;;12.47;7.08;;;;;;;13.66;91.45;100290.66;1714651;84;21578;-68
2021/10/14 03:21:55;;;;;;;13.50;6.53;;;;;;;13.66;91.44;100293.28;1713406;84;21184;-67
2021/10/14 03:24:28;;;;;;;10.87;6.50;;;;;;;13.66;91.46;100292.77;1714413;84;21267;-67
2021/10/14 03:27:01;;;;;;;13.00;6.45;;;;;;;13.69;91.45;100287.69;1714059;84;21216;-67
2021/10/14 03:29:34;;;;;;;11.85;6.33;;;;;;;13.70;91.48;100296.77;1714664;84;21266;-66
2021/10/14 03:32:10;;;;;;;12.82;6.15;;;;;;;13.73;91.51;100290.38;1715222;83;21283;-68
2021/10/14 03:34:43;;;;;;;11.18;5.85;;;;;;;13.74;91.55;100291.52;1713370;82;21259;-67
2021/10/14 03:37:17;;;;;;;8.73;6.47;;;;;;;13.74;91.64;100293.32;1714114;84;21299;-67
2021/10/14 03:39:50;;;;;;;9.70;5.25;;;;;;;13.72;91.81;100288.22;1714646;84;21125;-67
2021/10/14 03:42:23;;;;;;;7.70;5.53;;;;;;;13.72;92.02;100292.66;1713417;84;21232;-68
2021/10/14 03:44:57;;;;;;;7.05;5.12;;;;;;;13.70;92.20;100295.94;1714676;84;21315;-67
2021/10/14 03:47:30;;;;;;;8.30;5.03;;;;;;;13.70;92.45;100285.41;1714250;84;21282;-67
2021/10/14 03:50:04;;;;;;;10.10;5.43;;;;;;;13.70;92.66;100282.30;1714184;84;21836;-68
2021/10/14 03:52:39;;;;;;;8.30;5.22;;;;;;;13.69;92.76;100287.69;1713683;84;21458;-67
2021/10/14 03:55:11;;;;;;;7.65;4.53;;;;;;;13.69;92.93;100292.95;1714546;84;21691;-66
2021/10/14 03:57:45;;;;;;;7.62;4.95;;;;;;;13.69;93.08;100281.95;1714128;84;21179;-67
2021/10/14 04:00:18;;;;;;;7.65;4.53;;;;;;;13.70;93.26;100285.41;1714619;84;21254;-68
2021/10/14 04:02:51;;;;;;;5.37;4.17;;;;;;;13.70;93.38;100282.78;1713687;84;21832;-67
2021/10/14 04:05:24;;;;;;;8.30;4.08;;;;;;;13.73;93.57;100286.42;1692854;84;22883;-68
2021/10/14 04:07:58;;;;;;;7.70;4.03;;;;;;;13.73;93.65;100285.91;1714113;84;21267;-66
2021/10/14 04:10:32;;;;;;;7.30;4.20;;;;;;;13.74;93.78;100286.73;1714255;84;21188;-66
2021/10/14 04:13:06;;;;;;;10.58;4.28;;;;;;;13.73;93.94;100284.59;1713515;84;21306;-65
2021/10/14 04:15:39;;;;;;;6.08;4.33;;;;;;;13.77;94.15;100290.38;1714230;84;21617;-65
2021/10/14 04:18:12;;;;;;;7.58;4.37;;;;;;;13.78;94.20;100290.22;1716785;82;21308;-67
2021/10/14 04:20:45;;;;;;;8.67;5.30;;;;;;;13.79;94.32;100296.31;1725016;83;21162;-66
2021/10/14 04:23:20;;;;;;;8.65;4.45;;;;;;;13.81;94.43;100295.66;1721790;83;21184;-68
2021/10/14 04:25:53;;;;;;;8.25;4.75;;;;;;;13.85;94.58;100298.34;1709345;83;21198;-68
2021/10/14 04:28:27;;;;;;;8.88;4.35;;;;;;;13.89;94.67;100303.13;1718892;83;21289;-68
2021/10/14 04:31:01;;;;;;;6.83;4.55;;;;;;;13.92;94.67;100296.22;1710927;83;21249;-68
2021/10/14 04:33:35;;;;;;;10.15;4.62;;;;;;;13.96;94.74;100304.64;1712299;83;21301;-68
2021/10/14 04:36:09;;;;;;;6.08;4.37;;;;;;;13.98;94.75;100305.30;1697938;84;21395;-66
2021/10/14 04:38:42;;;;;;;5.78;4.25;;;;;;;13.99;94.78;100309.11;1714902;83;21325;-66
2021/10/14 04:41:15;;;;;;;4.65;3.12;;;;;;;14.02;94.92;100311.89;1720746;83;21151;-67
2021/10/14 04:43:48;;;;;;;7.17;4.50;;;;;;;14.04;94.83;100313.39;1719894;83;21298;-66
2021/10/14 04:46:21;;;;;;;5.65;4.30;;;;;;;14.04;94.83;100313.39;1720312;83;21683;-69
2021/10/14 04:48:55;;;;;;;;;;;;;;;14.08;95.04;100319.19;1720058;83;21172;-68
2021/10/14 04:51:28;;;;;;;5.80;4.22;;;;;;;14.10;95.13;100318.53;1707441;83;20597;-68
2021/10/14 04:54:01;;;;;;;6.95;4.05;;;;;;;14.09;95.33;100317.70;1710050;84;21213;-67
2021/10/14 04:56:35;;;;;;;6.05;4.30;;;;;;;14.12;95.38;100326.61;1711449;83;21292;-66
2021/10/14 04:59:08;;;;;;;8.40;4.67;;;;;;;14.13;95.36;100321.69;1710538;84;21157;-65
2021/10/14 05:01:42;;;;;;;6.45;4.55;;;;;;;14.18;95.40;100329.95;1709380;84;21173;-67
2021/10/14 05:04:16;;;;;;;6.28;4.10;;;;;;;14.21;95.46;100330.61;1709713;84;21181;-66
2021/10/14 05:06:49;;;;;;;8.08;5.20;;;;;;;14.24;95.39;100337.69;1711107;84;21276;-67
2021/10/14 05:09:22;;;;;;;8.43;5.30;;;;;;;14.31;95.40;100341.38;1710438;84;21293;-67
2021/10/14 05:11:55;;;;;;;9.93;5.25;;;;;;;14.46;95.40;100348.19;1711510;83;21268;-68
2021/10/14 05:14:29;;;;;;;;;;;;;;;14.68;95.42;100354.20;1711433;84;21172;-68
2021/10/14 05:17:02;;;;;;;11.18;7.78;;;;;;;14.95;95.21;100356.57;1710884;83;20176;-67
2021/10/14 05:19:35;;;;;;;12.98;7.35;;;;;;;15.09;94.40;100355.97;1709750;84;21272;-69
2021/10/14 05:22:08;;;;;;;16.75;12.50;;;;;;;15.17;93.58;100355.13;1710722;84;21252;-69
2021/10/14 05:24:42;;;;;;;11.28;7.47;;;;;;;15.22;93.04;100360.73;1708879;84;21320;-70
2021/10/14 05:27:15;;;;;;;9.60;6.72;;;;;;;15.28;92.64;100362.74;1710658;83;21308;-71
2021/10/14 05:29:49;;;;;;;9.83;6.92;;;;;;;15.28;92.17;100370.17;1709703;84;21284;-69
2021/10/14 05:32:22;;;;;;;12.73;6.08;;;;;;;15.22;91.62;100373.44;1707213;84;21367;-69
2021/10/14 05:34:55;;;;;;;10.08;6.28;;;;;;;15.14;91.41;100373.41;1704919;82;21228;-68
2021/10/14 05:37:29;;;;;;;8.73;5.90;;;;;;;15.09;91.43;100380.19;1693533;84;22160;-70
2021/10/14 05:44:14;;;;;;;9.88;6.72;;;;;;;15.12;91.50;100382.47;1714386;83;21101;-69
2021/10/14 05:46:47;;;;;;;9.97;6.97;;;;;;;15.27;90.93;100381.69;1717320;83;21284;-70
2021/10/14 05:49:20;;;;;;;10.83;7.37;;;;;;;15.52;90.89;100387.02;1716740;83;22199;-69
2021/10/14 05:51:53;;;;;;;9.53;6.47;;;;;;;15.82;90.28;100382.39;1712981;83;21355;-67
2021/10/14 05:54:26;;;;;;;10.90;6.90;;;;;;;16.03;89.03;100384.00;1710794;83;21378;-66
2021/10/14 05:56:59;;;;;;;9.35;6.58;;;;;;;16.14;88.04;100387.11;1711099;83;21649;-65
2021/10/14 05:59:33;;;;;;;10.48;6.95;;;;;;;16.17;87.03;100395.20;1710981;83;21612;-69
2021/10/14 06:02:05;;;;;;;;;;;;;;;16.15;86.31;100395.87;1713867;83;22029;-64
2021/10/14 06:04:40;;;;;;;9.67;6.80;;;;;;;16.07;85.75;100398.55;1711825;83;20289;-69
2021/10/14 06:07:13;;;;;;;9.40;7.28;;;;;;;15.97;85.58;100411.09;1711908;83;21311;-65
2021/10/14 06:09:46;;;;;;;13.62;8.03;;;;;;;15.91;85.16;100411.25;1711538;83;21337;-68
2021/10/14 06:16:29;;;;;;;15.25;7.60;;;;;;;15.76;84.57;100410.27;1710243;83;21459;-65
2021/10/14 06:19:02;;;;;;;10.72;7.25;;;;;;;15.70;84.30;100416.22;1711385;83;21343;-68
2021/10/14 06:21:35;;;;;;;11.15;6.55;;;;;;;15.71;83.79;100422.33;1710095;83;21311;-67
2021/10/14 06:24:08;;;;;;;12.15;7.92;;;;;;;15.69;83.56;100425.62;1710970;83;21197;-67
2021/10/14 06:26:41;;;;;;;13.30;7.75;;;;;;;15.72;83.60;100429.23;1708715;83;22082;-66
2021/10/14 06:29:15;;;;;;;12.47;7.87;;;;;;;15.73;83.37;100423.81;1710811;83;21315;-66
2021/10/14 06:31:48;;;;;;;12.03;8.05;;;;;;;15.78;83.08;100432.06;1710302;83;22040;-68
2021/10/14 06:38:32;;;;;;;10.18;7.40;;;;;;;15.85;82.71;100438.33;1731806;82;21237;-68
2021/10/14 06:41:05;;;;;;;11.95;8.38;;;;;;;15.86;82.76;100439.14;1739080;82;21316;-69
2021/10/14 06:43:38;;;;;;;12.95;8.55;;;;;;;15.82;82.70;100436.02;1739622;82;22047;-68
2021/10/14 06:46:11;;;;;;;13.72;8.30;;;;;;;15.82;82.80;100444.42;1738482;82;21471;-66
2021/10/14 06:48:44;;;;;;;14.90;8.38;;;;;;;15.78;82.48;100445.75;1739632;82;22028;-68
2021/10/14 06:51:18;;;;;;;12.05;7.15;;;;;;;15.74;82.34;100447.08;1739443;81;21294;-68
2021/10/14 06:53:51;;;;;;;14.30;9.63;;;;;;;15.68;82.07;100453.00;1739874;82;22088;-67
2021/10/14 06:56:25;;;;;;;14.55;9.08;;;;;;;15.67;82.00;100452.66;1738632;82;21200;-67
2021/10/14 06:58:58;;;;;;;16.87;10.68;;;;;;;15.66;81.83;100460.27;1739762;82;21309;-63
2021/10/14 07:01:31;;;;;;;16.07;11.03;;;;;;;15.62;81.85;100463.70;1738965;82;21282;-63
2021/10/14 07:04:05;;;;;;;17.20;11.60;;;;;;;15.55;82.09;100459.27;1739449;82;21400;-65
2021/10/14 07:06:38;;;;;;;19.12;11.68;;;;;;;15.45;82.39;100469.45;1738168;82;21305;-68
2021/10/14 07:09:11;;;;;;;16.73;12.15;;;;;;;15.38;82.84;100461.83;1739708;82;21310;-69
2021/10/14 07:11:52;;;;;;;19.10;11.80;;;;;;;15.37;83.40;100466.78;1738647;82;22126;-66
2021/10/14 07:14:20;;;;;;;16.60;9.95;;;;;;;15.38;83.74;100472.38;1737474;82;21459;-67
2021/10/14 07:16:54;;;;;;;18.30;10.55;;;;;;;15.36;84.03;100473.03;1736327;82;21180;-66
2021/10/14 07:19:27;;;;;;;13.95;9.43;;;;;;;15.33;84.30;100473.34;1736901;82;22034;-68
2021/10/14 07:22:01;;;;;;;26.30;13.22;;;;;;;15.30;84.58;100476.81;1736490;82;21310;-68
2021/10/14 07:24:35;;;;;;;45.98;21.20;;;;;;;15.29;84.96;100482.58;1736772;82;21219;-66
2021/10/14 07:27:09;;;;;;;19.23;10.60;;;;;;;15.27;85.27;100481.92;1738226;82;21282;-67
2021/10/14 07:29:42;;;;;;;17.17;10.20;;;;;;;15.26;85.63;100484.21;1739281;82;21282;-65
2021/10/14 07:32:15;;;;;;;14.60;9.38;;;;;;;15.25;85.83;100484.39;1738565;82;21293;-65
2021/10/14 07:34:48;;;;;;;13.98;9.93;;;;;;;15.26;86.14;100486.84;1739678;82;21284;-66
2021/10/14 07:37:21;;;;;;;14.33;8.70;;;;;;;15.31;86.40;100489.00;1738166;82;21243;-65
2021/10/14 07:39:55;;;;;;;14.93;9.23;;;;;;;15.37;86.45;100486.57;1720567;82;21219;-65
2021/10/14 07:42:29;;;;;;;20.65;12.65;;;;;;;15.42;86.36;100484.77;1710394;83;21494;-62
2021/10/14 07:45:03;;;;;;;13.40;8.85;;;;;;;15.47;86.21;100483.83;1710671;83;21327;-64
2021/10/14 07:47:37;;;;;;;13.40;8.88;;;;;;;15.52;86.26;100489.45;1715112;83;21235;-63
2021/10/14 07:54:06;;;;;;;16.48;10.65;;;;;;;15.64;85.40;100503.98;1715838;83;20226;-66
2021/10/14 07:56:42;;;;;;;18.60;11.53;;;;;;;15.66;85.11;100500.68;1715898;82;21481;-65
2021/10/14 07:59:15;;;;;;;20.05;12.50;;;;;;;15.64;84.89;100508.43;1716938;82;21478;-64
2021/10/14 08:05:44;;;;;;;28.02;18.42;;;;;;;15.62;84.21;100495.89;1716545;83;20230;-66
2021/10/14 08:08:17;;;;;;;30.45;18.85;;;;;;;15.52;84.01;100503.95;1715445;82;21220;-67
2021/10/14 08:15:06;;;;;;;34.65;21.73;;;;;;;15.49;83.97;100506.42;1716339;82;21979;-71
2021/10/14 08:21:51;;;;;;;42.98;25.57;;;;;;;15.45;83.93;100512.98;1715597;83;21132;-62
2021/10/14 08:28:35;;;;;;;36.40;22.48;;;;;;;15.49;84.08;100529.34;1713799;82;21311;-66
2021/10/14 08:31:09;;;;;;;32.23;21.05;;;;;;;15.53;83.97;100535.10;1716388;82;21314;-64
2021/10/14 08:33:44;;;;;;;35.58;23.38;;;;;;;15.52;83.78;100529.02;1715160;83;21651;-66
2021/10/14 08:36:17;;;;;;;31.87;21.50;;;;;;;15.57;83.91;100535.94;1716174;83;21212;-66
2021/10/14 08:38:50;;;;;;;33.48;20.80;;;;;;;15.61;83.67;100537.28;1715735;82;21303;-65
2021/10/14 08:41:25;;;;;;;34.75;23.95;;;;;;;15.61;83.30;100542.56;1715137;83;21172;-63
2021/10/14 08:43:58;;;;;;;35.75;23.85;;;;;;;15.60;83.36;100544.02;1718879;82;21208;-65
2021/10/14 08:46:31;;;;;;;30.85;22.10;;;;;;;15.58;83.39;100552.60;1715793;82;21257;-64
2021/10/14 08:49:08;;;;;;;37.75;24.72;;;;;;;15.55;83.37;100552.43;1714901;83;21326;-64
2021/10/14 08:51:43;;;;;;;40.15;24.55;;;;;;;15.52;83.34;100555.90;1716303;82;21466;-65
2021/10/14 08:54:18;;;;;;;34.58;24.30;;;;;;;15.49;83.42;100551.28;1716430;82;21474;-68
2021/10/14 08:56:53;;;;;;;43.17;27.10;;;;;;;15.59;83.53;100555.59;1716089;82;21227;-65
2021/10/14 08:59:26;;;;;;;40.48;23.70;;;;;;;15.67;83.44;100558.23;1714986;83;21204;-64
2021/10/14 09:02:15;;;;;;;36.98;25.10;;;;;;;15.72;83.10;100562.05;1716119;83;21612;-64
2021/10/14 09:09:02;;;;;;;28.47;20.02;;;;;;;15.80;82.58;100571.80;1739047;82;21354;-67
2021/10/14 09:11:35;;;;;;;25.62;17.92;;;;;;;15.92;81.78;100579.27;1740316;82;22070;-66
2021/10/14 09:14:12;;;;;;;30.05;19.75;;;;;;;15.97;80.91;100571.68;1738851;82;22135;-66
2021/10/14 09:16:49;;;;;;;28.12;19.27;;;;;;;16.03;80.60;100576.78;1719941;82;21445;-62
2021/10/14 09:19:29;;;;;;;30.60;21.25;;;;;;;16.10;80.17;100572.50;1696492;83;21212;-66
2021/10/14 09:26:12;;;;;;;32.17;22.05;;;;;;;16.12;79.17;100579.27;1708916;84;21950;-65
2021/10/14 09:28:46;;;;;;;31.23;20.12;;;;;;;16.01;78.85;100593.29;1707628;84;21597;-67
2021/10/14 09:31:20;;;;;;;30.08;20.05;;;;;;;15.88;78.65;100601.67;1707991;82;21303;-67
2021/10/14 09:33:57;;;;;;;28.30;20.88;;;;;;;15.72;78.93;100600.80;1710407;84;21347;-66
2021/10/14 09:36:32;;;;;;;25.00;17.98;;;;;;;15.63;79.31;100599.14;1710269;84;21550;-65
2021/10/14 09:39:07;;;;;;;23.70;16.42;;;;;;;15.57;79.40;100605.06;1685182;84;21349;-65
2021/10/14 09:41:42;;;;;;;18.87;14.58;;;;;;;15.50;79.12;100603.05;1686650;83;21530;-66
2021/10/14 09:44:23;;;;;;;20.27;14.73;;;;;;;15.45;78.61;100613.25;1718703;83;22127;-70
2021/10/14 09:46:56;;;;;;;19.95;13.40;;;;;;;15.40;78.66;100618.66;1714607;83;21511;-68
2021/10/14 09:49:34;;;;;;;19.55;13.13;;;;;;;15.32;78.69;100627.84;1715807;83;21224;-69
2021/10/14 09:52:08;;;;;;;17.48;12.35;;;;;;;15.26;78.97;100629.80;1716041;83;21311;-66
2021/10/14 09:54:41;;;;;;;16.57;12.58;;;;;;;15.19;79.02;100647.23;1715445;83;21582;-66
2021/10/14 09:57:25;;;;;;;16.40;12.15;;;;;;;15.11;79.20;100644.54;1715128;83;21216;-65
2021/10/14 10:00:00;;;;;;;15.90;11.85;;;;;;;15.03;79.26;100647.11;1738528;82;21565;-67
2021/10/14 10:02:38;;;;;;;17.00;11.30;;;;;;;15.00;79.60;100643.48;1738873;82;21569;-66
2021/10/14 10:05:14;;;;;;;12.23;9.90;;;;;;;14.96;79.82;100653.98;1716453;83;21286;-66
2021/10/14 10:07:52;;;;;;;13.53;9.80;;;;;;;14.93;80.42;100653.80;1717167;82;21196;-67
2021/10/14 10:10:28;;;;;;;14.07;9.48;;;;;;;14.88;80.85;100661.34;1715818;82;21212;-67
2021/10/14 10:13:05;;;;;;;15.75;10.30;;;;;;;14.91;81.05;100667.63;1715253;82;21200;-69
2021/10/14 10:15:50;;;;;;;17.12;11.08;;;;;;;14.96;81.33;100668.48;1715663;82;21283;-68
2021/10/14 10:18:35;;;;;;;15.75;8.65;;;;;;;14.98;81.43;100673.11;1715951;82;22019;-67
2021/10/14 10:21:09;;;;;;;10.32;8.10;;;;;;;14.97;81.45;100683.34;1716173;82;21307;-67
2021/10/14 10:24:09;;;;;;;11.60;8.28;;;;;;;14.92;81.59;100681.16;1716316;83;21307;-66
2021/10/14 10:26:48;;;;;;;8.93;7.12;;;;;;;14.87;81.75;100689.19;1696664;83;21366;-67
2021/10/14 10:29:29;;;;;;;10.50;7.62;;;;;;;14.85;81.78;100692.79;1716014;83;21321;-70
2021/10/14 10:32:10;;;;;;;8.53;6.80;;;;;;;14.78;81.23;100698.84;1734418;81;21368;-71
2021/10/14 10:35:04;;;;;;;7.65;6.47;;;;;;;14.73;81.25;100702.42;1736242;82;21482;-66
2021/10/14 10:37:57;;;;;;;8.23;6.40;;;;;;;14.71;81.29;100704.39;1732580;81;21220;-66
2021/10/14 10:40:41;;;;;;;7.45;5.83;;;;;;;14.63;81.06;100714.84;1689239;82;21314;-66
2021/10/14 10:43:31;;;;;;;8.10;6.62;;;;;;;14.58;81.19;100711.83;1736092;82;21618;-67
2021/10/14 10:50:32;;;;;;;7.00;5.58;;;;;;;14.43;81.67;100717.27;1729867;81;22155;-66
2021/10/14 10:53:22;;;;;;;8.53;5.80;;;;;;;14.30;82.33;100733.91;1740449;82;21309;-68
2021/10/14 10:56:03;;;;;;;8.05;5.05;;;;;;;14.18;82.81;100734.12;1739353;81;21363;-68
2021/10/14 10:58:48;;;;;;;9.33;4.85;;;;;;;14.13;83.22;100742.11;1730479;83;21350;-71
2021/10/14 11:01:29;;;;;;;7.70;4.87;;;;;;;14.07;83.35;100755.84;1729383;83;21357;-68
2021/10/14 11:04:04;;;;;;;;;;;;;;;14.00;83.18;100768.77;1743993;82;21286;-67
2021/10/14 11:06:38;;;;;;;9.53;5.53;;;;;;;13.90;83.07;100777.70;1728956;83;20326;-69
2021/10/14 11:09:20;;;;;;;;;;;;;;;13.78;83.06;100790.19;1744451;82;21297;-67
2021/10/14 11:16:07;;;;;;;9.25;3.83;;;;;;;13.69;83.01;100802.89;1739841;81;21988;-71
2021/10/14 11:18:47;;;;;;;2.72;2.10;;;;;;;13.54;81.75;100807.44;1729889;83;21334;-72
2021/10/14 11:21:23;;;;;;;2.15;1.70;;;;;;;13.39;81.33;100810.99;1726873;83;21318;-68
2021/10/14 11:24:00;;;;;;;3.98;2.12;;;;;;;13.28;81.15;100814.59;1741815;82;21916;-71
2021/10/14 11:26:38;;;;;;;3.67;2.45;;;;;;;13.18;81.07;100810.33;1734119;81;21481;-71
2021/10/14 11:29:19;;;;;;;7.50;2.40;;;;;;;13.11;80.81;100813.97;1738735;82;21324;-70
2021/10/14 11:32:02;;;;;;;5.55;2.87;;;;;;;13.02;80.82;100820.03;1737872;82;21323;-71
2021/10/14 11:34:37;;;;;;;4.15;2.55;;;;;;;13.01;81.04;100830.69;1739388;82;21614;-70
2021/10/14 11:37:31;;;;;;;4.28;2.60;;;;;;;13.01;80.92;100832.84;1736786;82;21311;-70
2021/10/14 11:40:08;;;;;;;7.47;2.70;;;;;;;12.99;80.84;100842.64;1758492;81;21347;-71
2021/10/14 11:42:41;;;;;;;3.37;2.27;;;;;;;12.93;80.31;100844.52;1758665;81;22157;-70
2021/10/14 11:45:14;;;;;;;5.45;2.92;;;;;;;12.83;80.16;100859.42;1758666;81;22113;-64
2021/10/14 11:47:48;;;;;;;2.62;2.15;;;;;;;12.74;80.00;100865.50;1731205;81;21307;-65
2021/10/14 11:50:31;;;;;;;3.27;2.25;;;;;;;12.70;80.11;100868.06;1757719;81;21490;-67
2021/10/14 11:53:06;;;;;;;4.03;2.40;;;;;;;12.66;80.14;100860.08;1758634;81;21310;-64
2021/10/14 11:55:42;;;;;;;7.25;3.40;;;;;;;12.65;80.08;100873.72;1758850;81;21283;-67
2021/10/14 11:58:16;;;;;;;10.23;5.20;;;;;;;12.65;79.86;100886.02;1731620;81;21315;-65
2021/10/14 12:00:50;;;;;;;3.42;2.60;;;;;;;12.61;79.52;100876.75;1757748;81;22124;-65
2021/10/14 12:07:33;;;;;;;2.92;2.42;;;;;;;12.53;79.27;100902.36;1759451;81;21113;-68
2021/10/14 12:10:08;;;;;;;3.62;2.90;;;;;;;12.44;79.01;100918.08;1730346;81;21354;-66
2021/10/14 12:12:41;;;;;;;5.15;2.62;;;;;;;12.39;78.87;100909.30;1758817;81;21303;-65
2021/10/14 12:15:16;;;;;;;5.05;2.98;;;;;;;12.38;78.84;100921.22;1757073;81;21295;-66
2021/10/14 12:17:49;;;;;;;;;;;;;;;12.40;78.85;100929.31;1761645;81;21291;-66
2021/10/14 12:20:23;;;;;;;3.83;2.47;;;;;;;12.43;78.64;100940.88;1757989;81;20416;-68
2021/10/14 12:23:04;;;;;;;5.37;3.27;;;;;;;12.42;78.22;100941.02;1732147;81;21295;-66
2021/10/14 12:25:37;;;;;;;7.05;3.02;;;;;;;12.40;78.01;100944.23;1759052;81;21358;-66
2021/10/14 12:28:23;;;;;;;5.60;2.87;;;;;;;12.39;77.80;100950.47;1758718;81;22157;-67
2021/10/14 12:30:59;;;;;;;;;;;;;;;12.36;77.52;100953.34;1760743;81;21307;-66
2021/10/14 12:33:31;;;;;;;6.62;3.12;;;;;;;12.34;77.50;100962.67;1728750;81;20352;-69
2021/10/14 12:36:06;;;;;;;7.28;3.00;;;;;;;12.30;77.31;100961.75;1758340;81;21294;-68
2021/10/14 12:38:41;;;;;;;5.37;2.70;;;;;;;12.29;77.35;100961.39;1758380;81;21307;-70
2021/10/14 12:41:18;;;;;;;3.55;2.98;;;;;;;12.29;76.93;100966.64;1754343;80;21412;-69
2021/10/14 12:44:03;;;;;;;5.37;3.27;;;;;;;12.28;76.67;100957.92;1737192;82;21334;-69
2021/10/14 12:51:53;;;;;;;8.48;4.72;;;;;;;12.28;76.52;100966.28;1773131;80;21306;-70
2021/10/14 12:54:28;;;;;;;7.17;4.30;;;;;;;12.30;76.12;100973.57;1774436;80;21334;-70